sensor_id;sensor_type;location;lat;lon;timestamp;P1;durP1;ratioP1;P2;durP2;ratioP2
44730;SDS011;30458;47.448;19.032;2022-09-13T00:09:58;1194.30;;;980.72;;
44730;SDS011;30458;47.448;19.032;2022-09-13T00:20:01;702.07;;;644.10;;
44730;SDS011;30458;47.448;19.032;2022-09-13T00:30:06;1167.97;;;955.83;;
44730;SDS011;30458;47.448;19.032;2022-09-13T00:40:09;672.75;;;609.90;;
44730;SDS011;30458;47.448;19.032;2022-09-13T01:00:23;455.27;;;415.70;;
44730;SDS011;30458;47.448;19.032;2022-09-13T01:10:24;450.00;;;416.55;;
44730;SDS011;30458;47.448;19.032;2022-09-13T01:31:01;540.85;;;502.67;;
44730;SDS011;30458;47.448;19.032;2022-09-13T01:41:22;567.95;;;530.92;;
44730;SDS011;30458;47.448;19.032;2022-09-13T01:51:59;596.58;;;554.30;;
44730;SDS011;30458;47.448;19.032;2022-09-13T02:02:25;504.23;;;473.93;;
44730;SDS011;30458;47.448;19.032;2022-09-13T02:12:32;514.22;;;478.90;;
44730;SDS011;30458;47.448;19.032;2022-09-13T02:22:40;1999.90;;;999.90;;
44730;SDS011;30458;47.448;19.032;2022-09-13T02:43:00;1157.43;;;847.40;;
44730;SDS011;30458;47.448;19.032;2022-09-13T02:53:13;523.83;;;491.47;;
44730;SDS011;30458;47.448;19.032;2022-09-13T03:03:21;419.02;;;389.17;;
44730;SDS011;30458;47.448;19.032;2022-09-13T03:43:56;446.63;;;416.83;;
44730;SDS011;30458;47.448;19.032;2022-09-13T03:54:02;598.88;;;551.83;;
44730;SDS011;30458;47.448;19.032;2022-09-13T04:04:07;600.20;;;553.55;;
44730;SDS011;30458;47.448;19.032;2022-09-13T04:14:10;829.00;;;754.50;;
44730;SDS011;30458;47.448;19.032;2022-09-13T04:24:11;668.78;;;615.90;;
44730;SDS011;30458;47.448;19.032;2022-09-13T04:34:14;651.42;;;601.83;;
44730;SDS011;30458;47.448;19.032;2022-09-13T04:44:16;968.88;;;874.70;;
44730;SDS011;30458;47.448;19.032;2022-09-13T04:54:17;932.03;;;842.40;;
44730;SDS011;30458;47.448;19.032;2022-09-13T05:04:20;923.88;;;829.10;;
44730;SDS011;30458;47.448;19.032;2022-09-13T05:14:21;1442.22;;;975.28;;
44730;SDS011;30458;47.448;19.032;2022-09-13T05:24:24;1601.00;;;972.90;;
44730;SDS011;30458;47.448;19.032;2022-09-13T05:34:28;1185.88;;;927.35;;
44730;SDS011;30458;47.448;19.032;2022-09-13T05:44:31;481.77;;;452.42;;
44730;SDS011;30458;47.448;19.032;2022-09-13T05:54:32;693.60;;;643.97;;
44730;SDS011;30458;47.448;19.032;2022-09-13T06:04:39;828.35;;;767.55;;
44730;SDS011;30458;47.448;19.032;2022-09-13T06:14:40;832.75;;;775.70;;
44730;SDS011;30458;47.448;19.032;2022-09-13T06:24:41;809.50;;;751.28;;
44730;SDS011;30458;47.448;19.032;2022-09-13T06:34:42;952.53;;;876.65;;
44730;SDS011;30458;47.448;19.032;2022-09-13T06:44:43;956.13;;;868.30;;
44730;SDS011;30458;47.448;19.032;2022-09-13T06:54:47;772.22;;;703.25;;
44730;SDS011;30458;47.448;19.032;2022-09-13T07:04:48;684.92;;;624.22;;
44730;SDS011;30458;47.448;19.032;2022-09-13T07:14:53;840.90;;;762.95;;
44730;SDS011;30458;47.448;19.032;2022-09-13T07:24:57;797.85;;;726.42;;
44730;SDS011;30458;47.448;19.032;2022-09-13T07:34:59;996.88;;;649.65;;
44730;SDS011;30458;47.448;19.032;2022-09-13T07:45:00;734.63;;;661.72;;
44730;SDS011;30458;47.448;19.032;2022-09-13T07:55:00;894.60;;;813.37;;
44730;SDS011;30458;47.448;19.032;2022-09-13T08:05:01;861.35;;;788.33;;
44730;SDS011;30458;47.448;19.032;2022-09-13T08:15:05;806.33;;;732.80;;
44730;SDS011;30458;47.448;19.032;2022-09-13T08:25:06;801.70;;;727.80;;
44730;SDS011;30458;47.448;19.032;2022-09-13T08:35:09;894.40;;;812.00;;
44730;SDS011;30458;47.448;19.032;2022-09-13T08:45:15;1022.63;;;747.30;;
44730;SDS011;30458;47.448;19.032;2022-09-13T09:05:40;907.13;;;824.08;;
44730;SDS011;30458;47.448;19.032;2022-09-13T09:15:48;918.83;;;838.55;;
44730;SDS011;30458;47.448;19.032;2022-09-13T09:25:55;753.58;;;687.30;;
44730;SDS011;30458;47.448;19.032;2022-09-13T09:36:13;829.17;;;756.58;;
44730;SDS011;30458;47.448;19.032;2022-09-13T09:46:20;1110.97;;;763.75;;
44730;SDS011;30458;47.448;19.032;2022-09-13T10:06:34;853.78;;;783.63;;
44730;SDS011;30458;47.448;19.032;2022-09-13T10:16:38;771.35;;;702.78;;
44730;SDS011;30458;47.448;19.032;2022-09-13T10:26:39;833.05;;;768.33;;
44730;SDS011;30458;47.448;19.032;2022-09-13T10:36:48;766.20;;;708.47;;
44730;SDS011;30458;47.448;19.032;2022-09-13T10:47:01;814.10;;;752.47;;
44730;SDS011;30458;47.448;19.032;2022-09-13T10:57:24;882.20;;;810.38;;
44730;SDS011;30458;47.448;19.032;2022-09-13T11:28:27;876.72;;;800.75;;
44730;SDS011;30458;47.448;19.032;2022-09-13T11:39:02;887.60;;;815.97;;
44730;SDS011;30458;47.448;19.032;2022-09-13T11:59:49;787.28;;;721.13;;
44730;SDS011;30458;47.448;19.032;2022-09-13T12:09:58;895.67;;;820.35;;
44730;SDS011;30458;47.448;19.032;2022-09-13T12:20:10;873.67;;;797.88;;
44730;SDS011;30458;47.448;19.032;2022-09-13T12:30:20;791.30;;;723.90;;
44730;SDS011;30458;47.448;19.032;2022-09-13T13:01:14;854.58;;;779.17;;
44730;SDS011;30458;47.448;19.032;2022-09-13T13:11:23;857.90;;;782.40;;
44730;SDS011;30458;47.448;19.032;2022-09-13T13:31:35;907.30;;;831.45;;
44730;SDS011;30458;47.448;19.032;2022-09-13T14:02:10;823.88;;;761.53;;
44730;SDS011;30458;47.448;19.032;2022-09-13T14:12:19;903.72;;;824.08;;
44730;SDS011;30458;47.448;19.032;2022-09-13T14:22:41;769.50;;;713.40;;
44730;SDS011;30458;47.448;19.032;2022-09-13T14:32:42;764.63;;;707.97;;
44730;SDS011;30458;47.448;19.032;2022-09-13T14:42:46;761.22;;;705.38;;
44730;SDS011;30458;47.448;19.032;2022-09-13T14:52:52;775.30;;;717.88;;
44730;SDS011;30458;47.448;19.032;2022-09-13T15:03:04;869.45;;;784.50;;
44730;SDS011;30458;47.448;19.032;2022-09-13T15:13:13;869.45;;;794.65;;
44730;SDS011;30458;47.448;19.032;2022-09-13T15:23:15;744.65;;;689.55;;
44730;SDS011;30458;47.448;19.032;2022-09-13T15:33:22;751.20;;;695.47;;
44730;SDS011;30458;47.448;19.032;2022-09-13T15:43:25;784.87;;;723.77;;
44730;SDS011;30458;47.448;19.032;2022-09-13T15:53:26;745.22;;;691.97;;
44730;SDS011;30458;47.448;19.032;2022-09-13T16:03:26;743.17;;;689.70;;
44730;SDS011;30458;47.448;19.032;2022-09-13T16:13:31;758.00;;;702.00;;
44730;SDS011;30458;47.448;19.032;2022-09-13T16:23:32;765.03;;;707.92;;
44730;SDS011;30458;47.448;19.032;2022-09-13T16:33:33;741.42;;;686.78;;
44730;SDS011;30458;47.448;19.032;2022-09-13T16:43:34;723.63;;;672.33;;
44730;SDS011;30458;47.448;19.032;2022-09-13T16:53:38;692.42;;;631.88;;
44730;SDS011;30458;47.448;19.032;2022-09-13T17:03:40;1068.20;;;847.47;;
44730;SDS011;30458;47.448;19.032;2022-09-13T17:13:41;1155.70;;;854.10;;
44730;SDS011;30458;47.448;19.032;2022-09-13T17:23:45;1999.90;;;999.90;;
44730;SDS011;30458;47.448;19.032;2022-09-13T17:33:51;1999.90;;;999.90;;
44730;SDS011;30458;47.448;19.032;2022-09-13T17:43:52;1999.90;;;999.90;;
44730;SDS011;30458;47.448;19.032;2022-09-13T17:53:55;1999.90;;;999.90;;
44730;SDS011;30458;47.448;19.032;2022-09-13T18:04:02;1566.38;;;950.17;;
44730;SDS011;30458;47.448;19.032;2022-09-13T18:14:03;1433.97;;;922.38;;
44730;SDS011;30458;47.448;19.032;2022-09-13T18:24:04;1999.90;;;992.58;;
44730;SDS011;30458;47.448;19.032;2022-09-13T18:34:07;1999.90;;;999.90;;
44730;SDS011;30458;47.448;19.032;2022-09-13T18:44:13;1999.90;;;737.92;;
44730;SDS011;30458;47.448;19.032;2022-09-13T18:54:18;1999.90;;;924.50;;
44730;SDS011;30458;47.448;19.032;2022-09-13T19:04:19;1999.90;;;825.80;;
44730;SDS011;30458;47.448;19.032;2022-09-13T19:14:24;1999.90;;;957.45;;
44730;SDS011;30458;47.448;19.032;2022-09-13T19:24:26;1999.90;;;834.47;;
44730;SDS011;30458;47.448;19.032;2022-09-13T19:34:27;1999.90;;;999.90;;
44730;SDS011;30458;47.448;19.032;2022-09-13T19:44:30;1715.43;;;710.60;;
44730;SDS011;30458;47.448;19.032;2022-09-13T19:54:31;1999.90;;;999.90;;
44730;SDS011;30458;47.448;19.032;2022-09-13T20:04:35;1999.90;;;999.90;;
44730;SDS011;30458;47.448;19.032;2022-09-13T20:14:36;1999.90;;;999.90;;
44730;SDS011;30458;47.448;19.032;2022-09-13T20:24:38;1999.90;;;999.90;;
44730;SDS011;30458;47.448;19.032;2022-09-13T20:34:41;1999.90;;;999.90;;
44730;SDS011;30458;47.448;19.032;2022-09-13T20:44:42;1999.90;;;999.90;;
44730;SDS011;30458;47.448;19.032;2022-09-13T20:54:45;1999.90;;;999.90;;
44730;SDS011;30458;47.448;19.032;2022-09-13T21:04:48;1999.90;;;999.90;;
44730;SDS011;30458;47.448;19.032;2022-09-13T21:14:52;1999.90;;;999.90;;
44730;SDS011;30458;47.448;19.032;2022-09-13T21:24:56;1999.90;;;999.90;;
44730;SDS011;30458;47.448;19.032;2022-09-13T21:34:57;1999.90;;;999.90;;
44730;SDS011;30458;47.448;19.032;2022-09-13T21:44:58;1999.90;;;999.90;;
44730;SDS011;30458;47.448;19.032;2022-09-13T21:55:02;1999.90;;;999.90;;
44730;SDS011;30458;47.448;19.032;2022-09-13T22:05:05;1999.90;;;999.90;;
44730;SDS011;30458;47.448;19.032;2022-09-13T22:15:09;1999.90;;;999.90;;
44730;SDS011;30458;47.448;19.032;2022-09-13T22:25:10;1999.90;;;999.90;;
44730;SDS011;30458;47.448;19.032;2022-09-13T22:35:11;1999.90;;;999.90;;
44730;SDS011;30458;47.448;19.032;2022-09-13T22:45:12;1999.90;;;999.90;;
44730;SDS011;30458;47.448;19.032;2022-09-13T22:55:13;1999.90;;;999.90;;
44730;SDS011;30458;47.448;19.032;2022-09-13T23:05:17;1999.90;;;999.90;;
44730;SDS011;30458;47.448;19.032;2022-09-13T23:15:17;1999.90;;;999.90;;
44730;SDS011;30458;47.448;19.032;2022-09-13T23:25:21;1999.90;;;999.90;;
44730;SDS011;30458;47.448;19.032;2022-09-13T23:35:24;1999.90;;;999.90;;
44730;SDS011;30458;47.448;19.032;2022-09-13T23:45:27;1571.40;;;799.58;;
44730;SDS011;30458;47.448;19.032;2022-09-13T23:55:28;1594.68;;;821.65;;
